sensor_id;sensor_type;location;lat;lon;timestamp;temperature;humidity
26517;DHT22;14190;51.342;6.338;2022-08-19T00:02:00;21.80;99.90
26517;DHT22;14190;51.342;6.338;2022-08-19T00:04:35;21.90;99.90
26517;DHT22;14190;51.342;6.338;2022-08-19T00:07:00;21.80;99.90
26517;DHT22;14190;51.342;6.338;2022-08-19T00:09:28;21.80;99.90
26517;DHT22;14190;51.342;6.338;2022-08-19T00:11:57;21.80;99.90
26517;DHT22;14190;51.342;6.338;2022-08-19T00:14:26;21.80;99.90
26517;DHT22;14190;51.342;6.338;2022-08-19T00:16:57;21.80;99.90
26517;DHT22;14190;51.342;6.338;2022-08-19T00:19:26;21.80;99.90
26517;DHT22;14190;51.342;6.338;2022-08-19T00:21:55;21.80;99.90
26517;DHT22;14190;51.342;6.338;2022-08-19T00:24:24;21.70;99.90
26517;DHT22;14190;51.342;6.338;2022-08-19T00:26:53;21.50;99.90
26517;DHT22;14190;51.342;6.338;2022-08-19T00:29:23;21.40;99.90
26517;DHT22;14190;51.342;6.338;2022-08-19T00:31:52;21.40;99.90
26517;DHT22;14190;51.342;6.338;2022-08-19T00:34:22;21.40;99.90
26517;DHT22;14190;51.342;6.338;2022-08-19T00:36:51;21.30;99.90
26517;DHT22;14190;51.342;6.338;2022-08-19T00:39:20;21.30;99.90
26517;DHT22;14190;51.342;6.338;2022-08-19T00:41:48;21.30;99.90
26517;DHT22;14190;51.342;6.338;2022-08-19T00:44:19;21.40;99.90
26517;DHT22;14190;51.342;6.338;2022-08-19T00:46:49;21.40;99.90
26517;DHT22;14190;51.342;6.338;2022-08-19T00:52:03;21.30;99.90
26517;DHT22;14190;51.342;6.338;2022-08-19T00:54:28;21.30;99.90
26517;DHT22;14190;51.342;6.338;2022-08-19T00:56:59;21.30;99.90
26517;DHT22;14190;51.342;6.338;2022-08-19T00:59:28;21.20;99.90
26517;DHT22;14190;51.342;6.338;2022-08-19T01:01:57;21.10;99.90
26517;DHT22;14190;51.342;6.338;2022-08-19T01:04:25;20.90;99.90
26517;DHT22;14190;51.342;6.338;2022-08-19T01:06:55;20.90;99.90
26517;DHT22;14190;51.342;6.338;2022-08-19T01:09:24;20.90;99.90
26517;DHT22;14190;51.342;6.338;2022-08-19T01:11:53;20.80;99.90
26517;DHT22;14190;51.342;6.338;2022-08-19T01:14:22;20.80;99.90
26517;DHT22;14190;51.342;6.338;2022-08-19T01:16:51;20.80;99.90
26517;DHT22;14190;51.342;6.338;2022-08-19T01:19:29;20.90;99.90
26517;DHT22;14190;51.342;6.338;2022-08-19T01:22:00;20.90;99.90
26517;DHT22;14190;51.342;6.338;2022-08-19T01:24:28;20.90;99.90
26517;DHT22;14190;51.342;6.338;2022-08-19T01:26:58;20.90;99.90
26517;DHT22;14190;51.342;6.338;2022-08-19T01:29:27;20.80;99.90
26517;DHT22;14190;51.342;6.338;2022-08-19T01:31:57;20.80;99.90
26517;DHT22;14190;51.342;6.338;2022-08-19T01:34:27;20.80;99.90
26517;DHT22;14190;51.342;6.338;2022-08-19T01:36:56;20.80;99.90
26517;DHT22;14190;51.342;6.338;2022-08-19T01:39:25;20.70;99.90
26517;DHT22;14190;51.342;6.338;2022-08-19T01:41:54;20.60;99.90
26517;DHT22;14190;51.342;6.338;2022-08-19T01:44:22;20.60;99.90
26517;DHT22;14190;51.342;6.338;2022-08-19T01:46:51;20.50;99.90
26517;DHT22;14190;51.342;6.338;2022-08-19T01:49:21;20.40;99.90
26517;DHT22;14190;51.342;6.338;2022-08-19T01:51:50;20.20;99.90
26517;DHT22;14190;51.342;6.338;2022-08-19T01:54:19;20.10;99.90
26517;DHT22;14190;51.342;6.338;2022-08-19T01:56:48;20.20;99.90
26517;DHT22;14190;51.342;6.338;2022-08-19T01:59:18;20.10;99.90
26517;DHT22;14190;51.342;6.338;2022-08-19T02:01:48;20.10;99.90
26517;DHT22;14190;51.342;6.338;2022-08-19T02:04:17;20.10;99.90
26517;DHT22;14190;51.342;6.338;2022-08-19T02:06:46;20.10;99.90
26517;DHT22;14190;51.342;6.338;2022-08-19T02:09:15;20.10;99.90
26517;DHT22;14190;51.342;6.338;2022-08-19T02:11:44;20.10;99.90
26517;DHT22;14190;51.342;6.338;2022-08-19T02:14:13;20.00;99.90
26517;DHT22;14190;51.342;6.338;2022-08-19T02:16:41;20.00;99.90
26517;DHT22;14190;51.342;6.338;2022-08-19T02:19:10;20.00;99.90
26517;DHT22;14190;51.342;6.338;2022-08-19T02:21:39;20.10;99.90
26517;DHT22;14190;51.342;6.338;2022-08-19T02:24:07;20.10;99.90
26517;DHT22;14190;51.342;6.338;2022-08-19T02:26:36;20.00;99.90
26517;DHT22;14190;51.342;6.338;2022-08-19T02:29:05;20.00;99.90
26517;DHT22;14190;51.342;6.338;2022-08-19T02:31:34;20.00;99.90
26517;DHT22;14190;51.342;6.338;2022-08-19T02:34:02;20.10;99.90
26517;DHT22;14190;51.342;6.338;2022-08-19T02:36:31;20.10;99.90
26517;DHT22;14190;51.342;6.338;2022-08-19T02:39:00;20.20;99.90
26517;DHT22;14190;51.342;6.338;2022-08-19T02:41:30;20.10;99.90
26517;DHT22;14190;51.342;6.338;2022-08-19T02:43:59;20.10;99.90
26517;DHT22;14190;51.342;6.338;2022-08-19T02:46:29;20.10;99.90
26517;DHT22;14190;51.342;6.338;2022-08-19T02:49:05;20.10;99.90
26517;DHT22;14190;51.342;6.338;2022-08-19T02:51:32;20.10;99.90
26517;DHT22;14190;51.342;6.338;2022-08-19T02:53:59;20.10;99.90
26517;DHT22;14190;51.342;6.338;2022-08-19T02:56:28;20.10;99.90
26517;DHT22;14190;51.342;6.338;2022-08-19T02:58:58;20.10;99.90
26517;DHT22;14190;51.342;6.338;2022-08-19T03:01:32;20.10;99.90
26517;DHT22;14190;51.342;6.338;2022-08-19T03:03:58;20.20;99.90
26517;DHT22;14190;51.342;6.338;2022-08-19T03:06:27;20.20;99.90
26517;DHT22;14190;51.342;6.338;2022-08-19T03:08:56;20.10;99.90
26517;DHT22;14190;51.342;6.338;2022-08-19T03:11:26;20.20;99.90
26517;DHT22;14190;51.342;6.338;2022-08-19T03:13:56;20.20;99.90
26517;DHT22;14190;51.342;6.338;2022-08-19T03:16:25;20.20;99.90
26517;DHT22;14190;51.342;6.338;2022-08-19T03:18:55;20.20;99.90
26517;DHT22;14190;51.342;6.338;2022-08-19T03:21:25;20.10;99.90
26517;DHT22;14190;51.342;6.338;2022-08-19T03:23:54;20.20;99.90
26517;DHT22;14190;51.342;6.338;2022-08-19T03:26:23;20.00;99.90
26517;DHT22;14190;51.342;6.338;2022-08-19T03:28:52;20.10;99.90
26517;DHT22;14190;51.342;6.338;2022-08-19T03:31:21;20.10;99.90
26517;DHT22;14190;51.342;6.338;2022-08-19T03:33:53;20.10;99.90
26517;DHT22;14190;51.342;6.338;2022-08-19T03:36:23;20.10;99.90
26517;DHT22;14190;51.342;6.338;2022-08-19T03:38:53;20.10;99.90
26517;DHT22;14190;51.342;6.338;2022-08-19T03:41:28;20.10;99.90
26517;DHT22;14190;51.342;6.338;2022-08-19T03:43:53;20.10;99.90
26517;DHT22;14190;51.342;6.338;2022-08-19T03:46:24;20.10;99.90
26517;DHT22;14190;51.342;6.338;2022-08-19T03:48:53;20.10;99.90
26517;DHT22;14190;51.342;6.338;2022-08-19T03:51:23;20.00;99.90
26517;DHT22;14190;51.342;6.338;2022-08-19T03:53:53;20.00;99.90
26517;DHT22;14190;51.342;6.338;2022-08-19T03:56:22;20.00;99.90
26517;DHT22;14190;51.342;6.338;2022-08-19T03:58:53;20.00;99.90
26517;DHT22;14190;51.342;6.338;2022-08-19T04:01:24;19.90;99.90
26517;DHT22;14190;51.342;6.338;2022-08-19T04:03:59;19.90;99.90
26517;DHT22;14190;51.342;6.338;2022-08-19T04:06:35;19.90;99.90
26517;DHT22;14190;51.342;6.338;2022-08-19T04:09:06;19.90;99.90
26517;DHT22;14190;51.342;6.338;2022-08-19T04:11:35;19.90;99.90
26517;DHT22;14190;51.342;6.338;2022-08-19T04:14:06;19.90;99.90
26517;DHT22;14190;51.342;6.338;2022-08-19T04:16:35;19.80;99.90
26517;DHT22;14190;51.342;6.338;2022-08-19T04:19:04;19.80;99.90
26517;DHT22;14190;51.342;6.338;2022-08-19T04:21:33;19.80;99.90
26517;DHT22;14190;51.342;6.338;2022-08-19T04:24:02;19.70;99.90
26517;DHT22;14190;51.342;6.338;2022-08-19T04:26:33;19.70;99.90
26517;DHT22;14190;51.342;6.338;2022-08-19T04:29:04;19.70;99.90
26517;DHT22;14190;51.342;6.338;2022-08-19T04:31:32;19.70;99.90
26517;DHT22;14190;51.342;6.338;2022-08-19T04:34:05;19.60;99.90
26517;DHT22;14190;51.342;6.338;2022-08-19T04:36:34;19.50;99.90
26517;DHT22;14190;51.342;6.338;2022-08-19T04:39:05;19.60;99.90
26517;DHT22;14190;51.342;6.338;2022-08-19T04:41:34;19.50;99.90
26517;DHT22;14190;51.342;6.338;2022-08-19T04:44:21;19.60;99.90
26517;DHT22;14190;51.342;6.338;2022-08-19T04:46:50;19.60;99.90
26517;DHT22;14190;51.342;6.338;2022-08-19T04:49:20;19.60;99.90
26517;DHT22;14190;51.342;6.338;2022-08-19T04:51:50;19.60;99.90
26517;DHT22;14190;51.342;6.338;2022-08-19T04:54:20;19.60;99.90
26517;DHT22;14190;51.342;6.338;2022-08-19T04:56:50;19.60;99.90
26517;DHT22;14190;51.342;6.338;2022-08-19T04:59:19;19.70;99.90
26517;DHT22;14190;51.342;6.338;2022-08-19T05:01:48;19.70;99.90
26517;DHT22;14190;51.342;6.338;2022-08-19T05:04:18;19.70;99.90
26517;DHT22;14190;51.342;6.338;2022-08-19T05:06:48;19.80;99.90
26517;DHT22;14190;51.342;6.338;2022-08-19T05:09:16;19.90;99.90
26517;DHT22;14190;51.342;6.338;2022-08-19T05:11:45;19.90;99.90
26517;DHT22;14190;51.342;6.338;2022-08-19T05:14:14;19.90;99.90
26517;DHT22;14190;51.342;6.338;2022-08-19T05:16:43;19.90;99.90
26517;DHT22;14190;51.342;6.338;2022-08-19T05:19:11;19.90;99.90
26517;DHT22;14190;51.342;6.338;2022-08-19T05:21:59;20.00;99.90
26517;DHT22;14190;51.342;6.338;2022-08-19T05:24:46;20.00;99.90
26517;DHT22;14190;51.342;6.338;2022-08-19T05:27:15;20.00;99.90
26517;DHT22;14190;51.342;6.338;2022-08-19T05:29:43;20.00;99.90
26517;DHT22;14190;51.342;6.338;2022-08-19T05:32:12;20.10;99.90
26517;DHT22;14190;51.342;6.338;2022-08-19T05:34:41;20.10;99.90
26517;DHT22;14190;51.342;6.338;2022-08-19T05:37:10;20.10;99.90
26517;DHT22;14190;51.342;6.338;2022-08-19T05:39:38;20.20;99.90
26517;DHT22;14190;51.342;6.338;2022-08-19T05:42:08;20.20;99.90
26517;DHT22;14190;51.342;6.338;2022-08-19T05:44:39;20.20;99.90
26517;DHT22;14190;51.342;6.338;2022-08-19T05:47:10;20.30;99.90
26517;DHT22;14190;51.342;6.338;2022-08-19T05:49:38;20.40;99.90
26517;DHT22;14190;51.342;6.338;2022-08-19T05:52:09;20.30;99.90
26517;DHT22;14190;51.342;6.338;2022-08-19T05:54:40;20.40;99.90
26517;DHT22;14190;51.342;6.338;2022-08-19T05:57:10;20.50;99.90
26517;DHT22;14190;51.342;6.338;2022-08-19T05:59:39;20.50;99.90
26517;DHT22;14190;51.342;6.338;2022-08-19T06:02:07;20.50;99.90
26517;DHT22;14190;51.342;6.338;2022-08-19T06:04:36;20.50;99.90
26517;DHT22;14190;51.342;6.338;2022-08-19T06:07:07;20.60;99.90
26517;DHT22;14190;51.342;6.338;2022-08-19T06:09:35;20.60;99.90
26517;DHT22;14190;51.342;6.338;2022-08-19T06:12:05;20.60;99.90
26517;DHT22;14190;51.342;6.338;2022-08-19T06:14:35;20.60;99.90
26517;DHT22;14190;51.342;6.338;2022-08-19T06:17:04;20.60;99.90
26517;DHT22;14190;51.342;6.338;2022-08-19T06:19:33;20.70;99.90
26517;DHT22;14190;51.342;6.338;2022-08-19T06:22:01;20.70;99.90
26517;DHT22;14190;51.342;6.338;2022-08-19T06:24:31;20.80;99.90
26517;DHT22;14190;51.342;6.338;2022-08-19T06:27:00;20.80;99.90
26517;DHT22;14190;51.342;6.338;2022-08-19T06:29:29;20.90;99.90
26517;DHT22;14190;51.342;6.338;2022-08-19T06:32:00;20.90;99.90
26517;DHT22;14190;51.342;6.338;2022-08-19T06:34:30;21.00;99.90
26517;DHT22;14190;51.342;6.338;2022-08-19T06:37:02;21.10;99.90
26517;DHT22;14190;51.342;6.338;2022-08-19T06:39:34;21.10;99.90
26517;DHT22;14190;51.342;6.338;2022-08-19T06:42:01;21.20;99.90
26517;DHT22;14190;51.342;6.338;2022-08-19T06:44:32;21.30;99.90
26517;DHT22;14190;51.342;6.338;2022-08-19T06:47:05;21.40;99.90
26517;DHT22;14190;51.342;6.338;2022-08-19T06:49:34;21.40;99.90
26517;DHT22;14190;51.342;6.338;2022-08-19T06:52:03;21.50;99.90
26517;DHT22;14190;51.342;6.338;2022-08-19T06:54:32;21.50;99.90
26517;DHT22;14190;51.342;6.338;2022-08-19T06:57:01;21.50;99.90
26517;DHT22;14190;51.342;6.338;2022-08-19T06:59:31;21.70;99.90
26517;DHT22;14190;51.342;6.338;2022-08-19T07:02:03;21.70;99.90
26517;DHT22;14190;51.342;6.338;2022-08-19T07:04:34;21.70;99.90
26517;DHT22;14190;51.342;6.338;2022-08-19T07:07:13;21.70;99.90
26517;DHT22;14190;51.342;6.338;2022-08-19T07:09:38;21.70;99.90
26517;DHT22;14190;51.342;6.338;2022-08-19T07:12:08;21.80;99.90
26517;DHT22;14190;51.342;6.338;2022-08-19T07:14:37;21.90;99.90
26517;DHT22;14190;51.342;6.338;2022-08-19T07:17:07;21.90;99.90
26517;DHT22;14190;51.342;6.338;2022-08-19T07:19:37;21.80;99.90
26517;DHT22;14190;51.342;6.338;2022-08-19T07:22:06;21.90;99.90
26517;DHT22;14190;51.342;6.338;2022-08-19T07:24:38;21.90;99.90
26517;DHT22;14190;51.342;6.338;2022-08-19T07:27:06;22.00;99.90
26517;DHT22;14190;51.342;6.338;2022-08-19T07:29:37;22.10;99.90
26517;DHT22;14190;51.342;6.338;2022-08-19T07:32:06;22.20;99.90
26517;DHT22;14190;51.342;6.338;2022-08-19T07:34:36;22.30;99.90
26517;DHT22;14190;51.342;6.338;2022-08-19T07:37:05;22.40;99.90
26517;DHT22;14190;51.342;6.338;2022-08-19T07:39:35;22.50;99.90
26517;DHT22;14190;51.342;6.338;2022-08-19T07:42:06;22.60;99.90
26517;DHT22;14190;51.342;6.338;2022-08-19T07:44:34;22.80;99.90
26517;DHT22;14190;51.342;6.338;2022-08-19T07:47:04;22.90;99.90
26517;DHT22;14190;51.342;6.338;2022-08-19T07:49:33;23.10;99.90
26517;DHT22;14190;51.342;6.338;2022-08-19T07:52:04;23.20;99.90
26517;DHT22;14190;51.342;6.338;2022-08-19T07:54:34;23.40;99.90
26517;DHT22;14190;51.342;6.338;2022-08-19T07:57:03;23.60;99.90
26517;DHT22;14190;51.342;6.338;2022-08-19T07:59:32;23.70;99.90
26517;DHT22;14190;51.342;6.338;2022-08-19T08:02:01;23.90;99.90
26517;DHT22;14190;51.342;6.338;2022-08-19T08:04:31;24.10;99.90
26517;DHT22;14190;51.342;6.338;2022-08-19T08:07:18;24.30;99.90
26517;DHT22;14190;51.342;6.338;2022-08-19T08:10:05;24.40;99.90
26517;DHT22;14190;51.342;6.338;2022-08-19T08:12:40;24.50;99.90
26517;DHT22;14190;51.342;6.338;2022-08-19T08:15:09;24.60;99.90
26517;DHT22;14190;51.342;6.338;2022-08-19T08:17:37;24.60;99.90
26517;DHT22;14190;51.342;6.338;2022-08-19T08:20:07;24.60;99.90
26517;DHT22;14190;51.342;6.338;2022-08-19T08:22:36;24.50;99.90
26517;DHT22;14190;51.342;6.338;2022-08-19T08:25:25;24.50;99.90
26517;DHT22;14190;51.342;6.338;2022-08-19T08:27:54;24.50;99.90
26517;DHT22;14190;51.342;6.338;2022-08-19T08:30:26;24.60;99.90
26517;DHT22;14190;51.342;6.338;2022-08-19T08:32:56;24.70;99.90
26517;DHT22;14190;51.342;6.338;2022-08-19T08:35:24;24.70;99.90
26517;DHT22;14190;51.342;6.338;2022-08-19T08:37:53;24.80;99.90
26517;DHT22;14190;51.342;6.338;2022-08-19T08:45:52;25.00;99.90
26517;DHT22;14190;51.342;6.338;2022-08-19T08:48:24;25.00;99.90
26517;DHT22;14190;51.342;6.338;2022-08-19T08:50:50;24.90;99.90
26517;DHT22;14190;51.342;6.338;2022-08-19T08:53:21;25.00;99.90
26517;DHT22;14190;51.342;6.338;2022-08-19T08:55:50;25.10;99.90
26517;DHT22;14190;51.342;6.338;2022-08-19T08:58:31;25.20;99.90
26517;DHT22;14190;51.342;6.338;2022-08-19T09:00:56;25.40;99.90
26517;DHT22;14190;51.342;6.338;2022-08-19T09:03:25;25.50;99.90
26517;DHT22;14190;51.342;6.338;2022-08-19T09:06:02;25.70;99.90
26517;DHT22;14190;51.342;6.338;2022-08-19T09:11:15;26.00;99.90
26517;DHT22;14190;51.342;6.338;2022-08-19T09:14:01;26.10;99.90
26517;DHT22;14190;51.342;6.338;2022-08-19T09:16:26;26.30;99.90
26517;DHT22;14190;51.342;6.338;2022-08-19T09:18:58;26.50;99.90
26517;DHT22;14190;51.342;6.338;2022-08-19T09:21:26;26.70;99.90
26517;DHT22;14190;51.342;6.338;2022-08-19T09:23:55;26.80;99.90
26517;DHT22;14190;51.342;6.338;2022-08-19T09:26:25;26.80;99.90
26517;DHT22;14190;51.342;6.338;2022-08-19T09:28:54;26.90;99.90
26517;DHT22;14190;51.342;6.338;2022-08-19T09:31:23;26.90;99.90
26517;DHT22;14190;51.342;6.338;2022-08-19T09:33:53;26.80;99.90
26517;DHT22;14190;51.342;6.338;2022-08-19T09:36:24;26.90;99.90
26517;DHT22;14190;51.342;6.338;2022-08-19T09:38:54;27.20;99.90
26517;DHT22;14190;51.342;6.338;2022-08-19T09:41:23;27.30;99.90
26517;DHT22;14190;51.342;6.338;2022-08-19T09:43:53;27.40;99.90
26517;DHT22;14190;51.342;6.338;2022-08-19T09:46:26;27.60;99.90
26517;DHT22;14190;51.342;6.338;2022-08-19T09:48:57;27.70;99.90
26517;DHT22;14190;51.342;6.338;2022-08-19T09:51:26;27.70;99.90
26517;DHT22;14190;51.342;6.338;2022-08-19T09:53:58;27.70;99.90
26517;DHT22;14190;51.342;6.338;2022-08-19T09:56:29;27.80;99.90
26517;DHT22;14190;51.342;6.338;2022-08-19T09:58:58;28.00;99.90
26517;DHT22;14190;51.342;6.338;2022-08-19T10:01:28;28.10;99.90
26517;DHT22;14190;51.342;6.338;2022-08-19T10:03:58;28.00;99.90
26517;DHT22;14190;51.342;6.338;2022-08-19T10:06:28;28.00;99.90
26517;DHT22;14190;51.342;6.338;2022-08-19T10:08:59;28.20;99.90
26517;DHT22;14190;51.342;6.338;2022-08-19T10:11:28;28.40;99.90
26517;DHT22;14190;51.342;6.338;2022-08-19T10:13:58;28.30;99.90
26517;DHT22;14190;51.342;6.338;2022-08-19T10:16:27;28.30;99.90
26517;DHT22;14190;51.342;6.338;2022-08-19T10:18:56;28.40;99.90
26517;DHT22;14190;51.342;6.338;2022-08-19T10:21:26;28.60;99.90
26517;DHT22;14190;51.342;6.338;2022-08-19T10:23:56;28.70;99.90
26517;DHT22;14190;51.342;6.338;2022-08-19T10:26:26;28.70;99.90
26517;DHT22;14190;51.342;6.338;2022-08-19T10:28:56;28.50;99.90
26517;DHT22;14190;51.342;6.338;2022-08-19T10:31:26;28.50;99.90
26517;DHT22;14190;51.342;6.338;2022-08-19T10:33:56;28.50;99.90
26517;DHT22;14190;51.342;6.338;2022-08-19T10:36:34;28.50;99.90
26517;DHT22;14190;51.342;6.338;2022-08-19T10:38:59;28.70;99.90
26517;DHT22;14190;51.342;6.338;2022-08-19T10:41:30;28.80;99.90
26517;DHT22;14190;51.342;6.338;2022-08-19T10:44:01;28.80;99.90
26517;DHT22;14190;51.342;6.338;2022-08-19T10:46:29;28.70;99.90
26517;DHT22;14190;51.342;6.338;2022-08-19T10:49:01;28.70;99.90
26517;DHT22;14190;51.342;6.338;2022-08-19T10:51:33;28.40;99.90
26517;DHT22;14190;51.342;6.338;2022-08-19T10:54:19;28.30;99.90
26517;DHT22;14190;51.342;6.338;2022-08-19T10:56:48;28.00;99.90
26517;DHT22;14190;51.342;6.338;2022-08-19T10:59:20;28.00;99.90
26517;DHT22;14190;51.342;6.338;2022-08-19T11:01:50;28.00;99.90
26517;DHT22;14190;51.342;6.338;2022-08-19T11:04:19;28.00;99.90
26517;DHT22;14190;51.342;6.338;2022-08-19T11:06:48;28.00;99.90
26517;DHT22;14190;51.342;6.338;2022-08-19T11:09:18;28.20;99.90
26517;DHT22;14190;51.342;6.338;2022-08-19T11:11:47;28.40;99.90
26517;DHT22;14190;51.342;6.338;2022-08-19T11:14:17;28.50;99.90
26517;DHT22;14190;51.342;6.338;2022-08-19T11:16:48;28.60;99.90
26517;DHT22;14190;51.342;6.338;2022-08-19T11:19:17;28.60;99.90
26517;DHT22;14190;51.342;6.338;2022-08-19T11:21:47;28.60;99.90
26517;DHT22;14190;51.342;6.338;2022-08-19T11:24:18;28.70;99.90
26517;DHT22;14190;51.342;6.338;2022-08-19T11:26:48;28.70;99.90
26517;DHT22;14190;51.342;6.338;2022-08-19T11:29:18;28.60;99.90
26517;DHT22;14190;51.342;6.338;2022-08-19T11:31:48;28.60;99.90
26517;DHT22;14190;51.342;6.338;2022-08-19T11:34:19;28.60;99.90
26517;DHT22;14190;51.342;6.338;2022-08-19T11:36:49;28.70;99.90
26517;DHT22;14190;51.342;6.338;2022-08-19T11:39:20;28.60;99.90
26517;DHT22;14190;51.342;6.338;2022-08-19T11:41:49;28.60;99.90
26517;DHT22;14190;51.342;6.338;2022-08-19T11:44:18;28.60;99.90
26517;DHT22;14190;51.342;6.338;2022-08-19T11:46:47;28.70;99.90
26517;DHT22;14190;51.342;6.338;2022-08-19T11:49:16;28.70;99.90
26517;DHT22;14190;51.342;6.338;2022-08-19T11:51:47;28.70;99.90
26517;DHT22;14190;51.342;6.338;2022-08-19T11:54:17;28.70;99.90
26517;DHT22;14190;51.342;6.338;2022-08-19T11:56:46;28.70;99.90
26517;DHT22;14190;51.342;6.338;2022-08-19T11:59:16;28.70;99.90
26517;DHT22;14190;51.342;6.338;2022-08-19T12:01:45;28.80;99.90
26517;DHT22;14190;51.342;6.338;2022-08-19T12:04:14;28.80;99.90
26517;DHT22;14190;51.342;6.338;2022-08-19T12:06:42;28.90;99.90
26517;DHT22;14190;51.342;6.338;2022-08-19T12:09:12;29.00;99.90
26517;DHT22;14190;51.342;6.338;2022-08-19T12:11:41;29.10;99.90
26517;DHT22;14190;51.342;6.338;2022-08-19T12:14:11;29.20;99.90
26517;DHT22;14190;51.342;6.338;2022-08-19T12:16:43;29.30;99.90
26517;DHT22;14190;51.342;6.338;2022-08-19T12:19:13;29.50;99.90
26517;DHT22;14190;51.342;6.338;2022-08-19T12:21:41;29.60;99.90
26517;DHT22;14190;51.342;6.338;2022-08-19T12:24:10;29.60;99.90
26517;DHT22;14190;51.342;6.338;2022-08-19T12:26:40;29.60;99.90
26517;DHT22;14190;51.342;6.338;2022-08-19T12:29:11;29.60;99.90
26517;DHT22;14190;51.342;6.338;2022-08-19T12:31:39;29.50;99.90
26517;DHT22;14190;51.342;6.338;2022-08-19T12:34:08;29.40;99.90
26517;DHT22;14190;51.342;6.338;2022-08-19T12:36:37;29.40;99.90
26517;DHT22;14190;51.342;6.338;2022-08-19T12:39:06;29.40;99.70
26517;DHT22;14190;51.342;6.338;2022-08-19T12:41:36;29.40;99.50
26517;DHT22;14190;51.342;6.338;2022-08-19T12:44:05;29.40;99.20
26517;DHT22;14190;51.342;6.338;2022-08-19T12:46:34;29.50;99.40
26517;DHT22;14190;51.342;6.338;2022-08-19T12:49:03;29.60;99.10
26517;DHT22;14190;51.342;6.338;2022-08-19T12:51:32;29.60;99.90
26517;DHT22;14190;51.342;6.338;2022-08-19T12:54:00;29.50;99.90
26517;DHT22;14190;51.342;6.338;2022-08-19T12:56:29;29.60;99.80
26517;DHT22;14190;51.342;6.338;2022-08-19T12:59:00;29.40;99.90
26517;DHT22;14190;51.342;6.338;2022-08-19T13:01:29;29.50;99.90
26517;DHT22;14190;51.342;6.338;2022-08-19T13:03:59;29.50;99.90
26517;DHT22;14190;51.342;6.338;2022-08-19T13:06:28;29.50;99.90
26517;DHT22;14190;51.342;6.338;2022-08-19T13:08:56;29.60;99.90
26517;DHT22;14190;51.342;6.338;2022-08-19T13:11:25;29.60;99.90
26517;DHT22;14190;51.342;6.338;2022-08-19T13:13:54;29.60;99.90
26517;DHT22;14190;51.342;6.338;2022-08-19T13:16:23;29.50;99.90
26517;DHT22;14190;51.342;6.338;2022-08-19T13:18:52;29.50;99.90
26517;DHT22;14190;51.342;6.338;2022-08-19T13:21:22;29.50;99.90
26517;DHT22;14190;51.342;6.338;2022-08-19T13:23:52;29.60;99.90
26517;DHT22;14190;51.342;6.338;2022-08-19T13:26:20;29.70;99.90
26517;DHT22;14190;51.342;6.338;2022-08-19T13:28:49;29.60;99.90
26517;DHT22;14190;51.342;6.338;2022-08-19T13:31:39;29.50;99.50
26517;DHT22;14190;51.342;6.338;2022-08-19T13:34:29;29.40;98.90
26517;DHT22;14190;51.342;6.338;2022-08-19T13:36:58;29.40;99.00
26517;DHT22;14190;51.342;6.338;2022-08-19T13:39:27;29.30;98.70
26517;DHT22;14190;51.342;6.338;2022-08-19T13:41:55;29.30;99.10
26517;DHT22;14190;51.342;6.338;2022-08-19T13:44:26;29.30;99.10
26517;DHT22;14190;51.342;6.338;2022-08-19T13:47:03;29.40;98.70
26517;DHT22;14190;51.342;6.338;2022-08-19T13:49:31;29.40;98.50
26517;DHT22;14190;51.342;6.338;2022-08-19T13:52:00;29.30;99.10
26517;DHT22;14190;51.342;6.338;2022-08-19T13:54:29;29.30;99.40
26517;DHT22;14190;51.342;6.338;2022-08-19T13:56:58;29.30;99.60
26517;DHT22;14190;51.342;6.338;2022-08-19T13:59:28;29.30;99.80
26517;DHT22;14190;51.342;6.338;2022-08-19T14:02:00;29.30;99.90
26517;DHT22;14190;51.342;6.338;2022-08-19T14:04:29;29.20;99.20
26517;DHT22;14190;51.342;6.338;2022-08-19T14:06:57;29.10;99.90
26517;DHT22;14190;51.342;6.338;2022-08-19T14:09:26;29.20;99.70
26517;DHT22;14190;51.342;6.338;2022-08-19T14:11:55;29.20;99.90
26517;DHT22;14190;51.342;6.338;2022-08-19T14:14:23;29.10;99.90
26517;DHT22;14190;51.342;6.338;2022-08-19T14:16:52;29.20;99.50
26517;DHT22;14190;51.342;6.338;2022-08-19T14:19:21;29.20;99.70
26517;DHT22;14190;51.342;6.338;2022-08-19T14:21:52;29.20;99.80
26517;DHT22;14190;51.342;6.338;2022-08-19T14:24:21;29.20;99.90
26517;DHT22;14190;51.342;6.338;2022-08-19T14:26:49;29.10;99.90
26517;DHT22;14190;51.342;6.338;2022-08-19T14:29:18;29.00;99.90
26517;DHT22;14190;51.342;6.338;2022-08-19T14:31:47;28.90;99.90
26517;DHT22;14190;51.342;6.338;2022-08-19T14:34:16;28.80;99.90
26517;DHT22;14190;51.342;6.338;2022-08-19T14:36:44;28.70;99.90
26517;DHT22;14190;51.342;6.338;2022-08-19T14:39:13;28.70;99.90
26517;DHT22;14190;51.342;6.338;2022-08-19T14:41:42;28.70;99.90
26517;DHT22;14190;51.342;6.338;2022-08-19T14:44:11;28.90;99.90
26517;DHT22;14190;51.342;6.338;2022-08-19T14:46:42;29.00;99.90
26517;DHT22;14190;51.342;6.338;2022-08-19T14:49:12;29.00;99.90
26517;DHT22;14190;51.342;6.338;2022-08-19T14:51:41;28.90;99.90
26517;DHT22;14190;51.342;6.338;2022-08-19T14:54:10;28.80;99.90
26517;DHT22;14190;51.342;6.338;2022-08-19T14:56:39;28.80;99.90
26517;DHT22;14190;51.342;6.338;2022-08-19T14:59:08;28.80;99.90
26517;DHT22;14190;51.342;6.338;2022-08-19T15:01:37;28.80;99.90
26517;DHT22;14190;51.342;6.338;2022-08-19T15:04:06;28.80;99.90
26517;DHT22;14190;51.342;6.338;2022-08-19T15:06:35;28.70;99.90
26517;DHT22;14190;51.342;6.338;2022-08-19T15:09:03;28.40;99.90
26517;DHT22;14190;51.342;6.338;2022-08-19T15:11:32;28.30;99.90
26517;DHT22;14190;51.342;6.338;2022-08-19T15:14:01;28.20;99.90
26517;DHT22;14190;51.342;6.338;2022-08-19T15:16:30;28.20;99.90
26517;DHT22;14190;51.342;6.338;2022-08-19T15:18:59;28.10;99.90
26517;DHT22;14190;51.342;6.338;2022-08-19T15:21:28;28.20;99.90
26517;DHT22;14190;51.342;6.338;2022-08-19T15:23:58;28.20;99.90
26517;DHT22;14190;51.342;6.338;2022-08-19T15:26:28;28.30;99.90
26517;DHT22;14190;51.342;6.338;2022-08-19T15:28:59;28.30;99.90
26517;DHT22;14190;51.342;6.338;2022-08-19T15:31:28;28.30;99.90
26517;DHT22;14190;51.342;6.338;2022-08-19T15:33:59;28.40;99.90
26517;DHT22;14190;51.342;6.338;2022-08-19T15:36:28;28.30;99.90
26517;DHT22;14190;51.342;6.338;2022-08-19T15:38:57;28.20;99.90
26517;DHT22;14190;51.342;6.338;2022-08-19T15:41:27;28.20;99.90
26517;DHT22;14190;51.342;6.338;2022-08-19T15:43:58;28.20;99.90
26517;DHT22;14190;51.342;6.338;2022-08-19T15:46:28;28.30;99.90
26517;DHT22;14190;51.342;6.338;2022-08-19T15:48:58;28.40;99.90
26517;DHT22;14190;51.342;6.338;2022-08-19T15:51:28;28.60;99.90
26517;DHT22;14190;51.342;6.338;2022-08-19T15:53:57;28.70;99.90
26517;DHT22;14190;51.342;6.338;2022-08-19T15:56:27;28.70;99.90
26517;DHT22;14190;51.342;6.338;2022-08-19T15:58:57;28.70;99.90